Guilford, Connecticut
Current Conditions -  °F | °C
As of 8:53 PM on Saturday 20 Dec 2014 (Local Time) from KHVN Reporting Station
Overcast Overcast  
Wind Chill: 35°   Ceiling: 3200
Heat Index: 35°   Visibility: 10mi
Dew Point: 24°   Wind: 0mph
Humidity: 64%   Direction: NA
Pressure: 30.28"   Gusts: NA
Location:  41.29°N, 72.68°W
Report Text: KHVN 210153Z 00000KT 10SM OVC032 02/M04 A3028 RMK AO2 SLP254 T00171044
Loading
Personal Weather Stations






























Interactive Weather Map New forecast layout! Learn more

10-Day Weather Forecast

Advertisements
Track Severe Weather on mobile